sensor_id;sensor_type;location;lat;lon;timestamp;P1;durP1;ratioP1;P2;durP2;ratioP2
7683;SDS011;3884;48.616;12.872;2023-02-12T00:01:23;36.53;;;24.73;;
7683;SDS011;3884;48.616;12.872;2023-02-12T00:03:52;37.53;;;25.83;;
7683;SDS011;3884;48.616;12.872;2023-02-12T00:06:21;34.80;;;24.23;;
7683;SDS011;3884;48.616;12.872;2023-02-12T00:08:49;38.17;;;25.67;;
7683;SDS011;3884;48.616;12.872;2023-02-12T00:11:17;33.90;;;24.33;;
7683;SDS011;3884;48.616;12.872;2023-02-12T00:13:46;34.50;;;22.93;;
7683;SDS011;3884;48.616;12.872;2023-02-12T00:16:14;36.53;;;25.33;;
7683;SDS011;3884;48.616;12.872;2023-02-12T00:18:43;34.33;;;24.07;;
7683;SDS011;3884;48.616;12.872;2023-02-12T00:21:11;34.50;;;25.33;;
7683;SDS011;3884;48.616;12.872;2023-02-12T00:23:40;34.60;;;25.00;;
7683;SDS011;3884;48.616;12.872;2023-02-12T00:26:08;32.60;;;23.50;;
7683;SDS011;3884;48.616;12.872;2023-02-12T00:28:41;34.27;;;24.20;;
7683;SDS011;3884;48.616;12.872;2023-02-12T00:31:09;35.60;;;25.00;;
7683;SDS011;3884;48.616;12.872;2023-02-12T00:33:37;34.17;;;24.47;;
7683;SDS011;3884;48.616;12.872;2023-02-12T00:36:05;33.47;;;24.77;;
7683;SDS011;3884;48.616;12.872;2023-02-12T00:38:34;34.20;;;24.13;;
7683;SDS011;3884;48.616;12.872;2023-02-12T00:41:03;34.43;;;24.77;;
7683;SDS011;3884;48.616;12.872;2023-02-12T00:43:30;35.87;;;24.53;;
7683;SDS011;3884;48.616;12.872;2023-02-12T00:45:59;32.23;;;23.73;;
7683;SDS011;3884;48.616;12.872;2023-02-12T00:48:26;33.60;;;24.00;;
7683;SDS011;3884;48.616;12.872;2023-02-12T00:50:54;33.00;;;24.83;;
7683;SDS011;3884;48.616;12.872;2023-02-12T00:53:21;34.23;;;25.00;;
7683;SDS011;3884;48.616;12.872;2023-02-12T00:55:48;37.00;;;25.00;;
7683;SDS011;3884;48.616;12.872;2023-02-12T00:58:16;34.63;;;25.33;;
7683;SDS011;3884;48.616;12.872;2023-02-12T01:00:43;39.33;;;26.17;;
7683;SDS011;3884;48.616;12.872;2023-02-12T01:03:11;36.93;;;24.73;;
7683;SDS011;3884;48.616;12.872;2023-02-12T01:05:38;36.97;;;24.90;;
7683;SDS011;3884;48.616;12.872;2023-02-12T01:08:05;36.97;;;26.17;;
7683;SDS011;3884;48.616;12.872;2023-02-12T01:10:32;35.20;;;25.33;;
7683;SDS011;3884;48.616;12.872;2023-02-12T01:12:59;38.53;;;26.57;;
7683;SDS011;3884;48.616;12.872;2023-02-12T01:15:28;38.93;;;26.93;;
7683;SDS011;3884;48.616;12.872;2023-02-12T01:17:55;35.13;;;24.63;;
7683;SDS011;3884;48.616;12.872;2023-02-12T01:20:23;35.60;;;25.47;;
7683;SDS011;3884;48.616;12.872;2023-02-12T01:22:51;38.77;;;26.10;;
7683;SDS011;3884;48.616;12.872;2023-02-12T01:25:18;37.20;;;25.33;;
7683;SDS011;3884;48.616;12.872;2023-02-12T01:27:45;37.63;;;26.27;;
7683;SDS011;3884;48.616;12.872;2023-02-12T01:30:13;42.57;;;27.43;;
7683;SDS011;3884;48.616;12.872;2023-02-12T01:32:42;36.80;;;26.17;;
7683;SDS011;3884;48.616;12.872;2023-02-12T01:35:09;39.47;;;27.63;;
7683;SDS011;3884;48.616;12.872;2023-02-12T01:37:39;42.10;;;27.50;;
7683;SDS011;3884;48.616;12.872;2023-02-12T01:40:07;41.00;;;26.77;;
7683;SDS011;3884;48.616;12.872;2023-02-12T01:42:35;40.70;;;26.37;;
7683;SDS011;3884;48.616;12.872;2023-02-12T01:48:15;37.50;;;26.10;;
7683;SDS011;3884;48.616;12.872;2023-02-12T01:50:44;41.67;;;28.00;;
7683;SDS011;3884;48.616;12.872;2023-02-12T01:53:14;38.17;;;26.60;;
7683;SDS011;3884;48.616;12.872;2023-02-12T01:55:48;37.67;;;26.17;;
7683;SDS011;3884;48.616;12.872;2023-02-12T01:58:20;36.47;;;26.87;;
7683;SDS011;3884;48.616;12.872;2023-02-12T02:00:50;39.70;;;28.10;;
7683;SDS011;3884;48.616;12.872;2023-02-12T02:03:18;42.37;;;29.03;;
7683;SDS011;3884;48.616;12.872;2023-02-12T02:05:46;43.07;;;29.27;;
7683;SDS011;3884;48.616;12.872;2023-02-12T02:08:19;40.57;;;28.53;;
7683;SDS011;3884;48.616;12.872;2023-02-12T02:10:46;40.53;;;28.10;;
7683;SDS011;3884;48.616;12.872;2023-02-12T02:13:13;44.93;;;30.17;;
7683;SDS011;3884;48.616;12.872;2023-02-12T02:15:58;44.27;;;30.90;;
7683;SDS011;3884;48.616;12.872;2023-02-12T02:18:31;47.30;;;31.67;;
7683;SDS011;3884;48.616;12.872;2023-02-12T02:24:10;51.10;;;32.97;;
7683;SDS011;3884;48.616;12.872;2023-02-12T02:29:52;54.20;;;33.43;;
7683;SDS011;3884;48.616;12.872;2023-02-12T02:32:40;58.20;;;35.23;;
7683;SDS011;3884;48.616;12.872;2023-02-12T02:35:12;56.27;;;36.17;;
7683;SDS011;3884;48.616;12.872;2023-02-12T02:37:44;62.40;;;36.97;;
7683;SDS011;3884;48.616;12.872;2023-02-12T02:40:17;60.87;;;37.73;;
7683;SDS011;3884;48.616;12.872;2023-02-12T02:42:46;64.47;;;36.80;;
7683;SDS011;3884;48.616;12.872;2023-02-12T02:45:19;67.90;;;40.47;;
7683;SDS011;3884;48.616;12.872;2023-02-12T02:47:53;64.27;;;38.17;;
7683;SDS011;3884;48.616;12.872;2023-02-12T02:50:24;69.20;;;40.20;;
7683;SDS011;3884;48.616;12.872;2023-02-12T02:52:55;67.87;;;40.97;;
7683;SDS011;3884;48.616;12.872;2023-02-12T02:55:29;69.10;;;41.03;;
7683;SDS011;3884;48.616;12.872;2023-02-12T02:58:05;70.00;;;42.37;;
7683;SDS011;3884;48.616;12.872;2023-02-12T03:00:36;73.50;;;42.10;;
7683;SDS011;3884;48.616;12.872;2023-02-12T03:03:08;76.17;;;43.50;;
7683;SDS011;3884;48.616;12.872;2023-02-12T03:05:39;78.50;;;44.53;;
7683;SDS011;3884;48.616;12.872;2023-02-12T03:08:11;74.00;;;44.13;;
7683;SDS011;3884;48.616;12.872;2023-02-12T03:10:44;74.90;;;43.63;;
7683;SDS011;3884;48.616;12.872;2023-02-12T03:13:15;82.03;;;45.37;;
7683;SDS011;3884;48.616;12.872;2023-02-12T03:15:47;84.47;;;47.63;;
7683;SDS011;3884;48.616;12.872;2023-02-12T03:18:20;93.00;;;46.20;;
7683;SDS011;3884;48.616;12.872;2023-02-12T03:20:50;94.47;;;48.33;;
7683;SDS011;3884;48.616;12.872;2023-02-12T03:23:21;93.83;;;49.53;;
7683;SDS011;3884;48.616;12.872;2023-02-12T03:25:52;87.40;;;46.60;;
7683;SDS011;3884;48.616;12.872;2023-02-12T03:28:25;93.30;;;47.83;;
7683;SDS011;3884;48.616;12.872;2023-02-12T03:30:56;107.70;;;49.73;;
7683;SDS011;3884;48.616;12.872;2023-02-12T03:33:35;96.63;;;49.83;;
7683;SDS011;3884;48.616;12.872;2023-02-12T03:36:17;96.97;;;49.70;;
7683;SDS011;3884;48.616;12.872;2023-02-12T03:38:51;96.90;;;50.60;;
7683;SDS011;3884;48.616;12.872;2023-02-12T03:41:21;100.30;;;51.27;;
7683;SDS011;3884;48.616;12.872;2023-02-12T03:43:53;90.20;;;50.37;;
7683;SDS011;3884;48.616;12.872;2023-02-12T03:46:24;93.77;;;50.60;;
7683;SDS011;3884;48.616;12.872;2023-02-12T03:48:59;94.80;;;48.37;;
7683;SDS011;3884;48.616;12.872;2023-02-12T03:51:31;94.80;;;48.87;;
7683;SDS011;3884;48.616;12.872;2023-02-12T03:54:02;102.60;;;50.63;;
7683;SDS011;3884;48.616;12.872;2023-02-12T03:56:32;95.47;;;50.17;;
7683;SDS011;3884;48.616;12.872;2023-02-12T03:59:04;100.97;;;51.83;;
7683;SDS011;3884;48.616;12.872;2023-02-12T04:01:32;105.10;;;51.73;;
7683;SDS011;3884;48.616;12.872;2023-02-12T04:04:02;100.47;;;49.67;;
7683;SDS011;3884;48.616;12.872;2023-02-12T04:06:31;100.40;;;50.80;;
7683;SDS011;3884;48.616;12.872;2023-02-12T04:09:00;104.63;;;50.47;;
7683;SDS011;3884;48.616;12.872;2023-02-12T04:11:31;101.50;;;51.40;;
7683;SDS011;3884;48.616;12.872;2023-02-12T04:14:12;98.60;;;50.20;;
7683;SDS011;3884;48.616;12.872;2023-02-12T04:16:47;97.83;;;48.83;;
7683;SDS011;3884;48.616;12.872;2023-02-12T04:19:23;101.37;;;50.37;;
7683;SDS011;3884;48.616;12.872;2023-02-12T04:21:58;104.80;;;50.53;;
7683;SDS011;3884;48.616;12.872;2023-02-12T04:24:38;94.80;;;50.67;;
7683;SDS011;3884;48.616;12.872;2023-02-12T04:27:13;104.97;;;51.00;;
7683;SDS011;3884;48.616;12.872;2023-02-12T04:29:46;97.73;;;48.67;;
7683;SDS011;3884;48.616;12.872;2023-02-12T04:32:17;100.53;;;51.77;;
7683;SDS011;3884;48.616;12.872;2023-02-12T04:34:51;99.87;;;48.07;;
7683;SDS011;3884;48.616;12.872;2023-02-12T04:37:24;109.67;;;52.93;;
7683;SDS011;3884;48.616;12.872;2023-02-12T04:39:54;101.20;;;49.73;;
7683;SDS011;3884;48.616;12.872;2023-02-12T04:42:23;105.20;;;50.77;;
7683;SDS011;3884;48.616;12.872;2023-02-12T04:44:51;95.47;;;51.20;;
7683;SDS011;3884;48.616;12.872;2023-02-12T04:47:18;93.83;;;48.80;;
7683;SDS011;3884;48.616;12.872;2023-02-12T04:49:45;100.37;;;50.80;;
7683;SDS011;3884;48.616;12.872;2023-02-12T04:52:13;96.67;;;49.00;;
7683;SDS011;3884;48.616;12.872;2023-02-12T04:54:40;103.80;;;50.23;;
7683;SDS011;3884;48.616;12.872;2023-02-12T04:57:07;96.93;;;48.53;;
7683;SDS011;3884;48.616;12.872;2023-02-12T04:59:34;98.83;;;49.47;;
7683;SDS011;3884;48.616;12.872;2023-02-12T05:02:01;97.73;;;49.47;;
7683;SDS011;3884;48.616;12.872;2023-02-12T05:04:29;100.43;;;49.17;;
7683;SDS011;3884;48.616;12.872;2023-02-12T05:06:56;97.43;;;49.20;;
7683;SDS011;3884;48.616;12.872;2023-02-12T05:09:24;109.03;;;50.03;;
7683;SDS011;3884;48.616;12.872;2023-02-12T05:11:51;105.90;;;51.87;;
7683;SDS011;3884;48.616;12.872;2023-02-12T05:14:18;101.90;;;50.20;;
7683;SDS011;3884;48.616;12.872;2023-02-12T05:16:45;101.57;;;49.77;;
7683;SDS011;3884;48.616;12.872;2023-02-12T05:19:12;105.10;;;50.60;;
7683;SDS011;3884;48.616;12.872;2023-02-12T05:21:39;102.63;;;50.63;;
7683;SDS011;3884;48.616;12.872;2023-02-12T05:24:06;101.40;;;51.17;;
7683;SDS011;3884;48.616;12.872;2023-02-12T05:26:35;98.90;;;49.03;;
7683;SDS011;3884;48.616;12.872;2023-02-12T05:29:02;108.13;;;53.57;;
7683;SDS011;3884;48.616;12.872;2023-02-12T05:31:29;104.67;;;53.50;;
7683;SDS011;3884;48.616;12.872;2023-02-12T05:33:56;115.30;;;54.67;;
7683;SDS011;3884;48.616;12.872;2023-02-12T05:36:24;96.43;;;49.83;;
7683;SDS011;3884;48.616;12.872;2023-02-12T05:38:51;106.23;;;52.53;;
7683;SDS011;3884;48.616;12.872;2023-02-12T05:41:22;107.70;;;53.33;;
7683;SDS011;3884;48.616;12.872;2023-02-12T05:43:51;119.87;;;55.50;;
7683;SDS011;3884;48.616;12.872;2023-02-12T05:46:20;119.40;;;55.67;;
7683;SDS011;3884;48.616;12.872;2023-02-12T05:48:47;116.80;;;56.13;;
7683;SDS011;3884;48.616;12.872;2023-02-12T05:51:15;112.63;;;55.43;;
7683;SDS011;3884;48.616;12.872;2023-02-12T05:53:44;110.80;;;53.87;;
7683;SDS011;3884;48.616;12.872;2023-02-12T05:56:13;113.40;;;55.73;;
7683;SDS011;3884;48.616;12.872;2023-02-12T05:58:42;114.33;;;55.53;;
7683;SDS011;3884;48.616;12.872;2023-02-12T06:01:14;119.90;;;55.10;;
7683;SDS011;3884;48.616;12.872;2023-02-12T06:03:43;119.40;;;55.07;;
7683;SDS011;3884;48.616;12.872;2023-02-12T06:06:10;114.13;;;55.07;;
7683;SDS011;3884;48.616;12.872;2023-02-12T06:08:38;109.80;;;55.13;;
7683;SDS011;3884;48.616;12.872;2023-02-12T06:11:06;115.77;;;56.40;;
7683;SDS011;3884;48.616;12.872;2023-02-12T06:13:35;129.83;;;64.03;;
7683;SDS011;3884;48.616;12.872;2023-02-12T06:16:03;119.50;;;55.87;;
7683;SDS011;3884;48.616;12.872;2023-02-12T06:18:31;114.17;;;55.67;;
7683;SDS011;3884;48.616;12.872;2023-02-12T06:21:01;108.70;;;54.13;;
7683;SDS011;3884;48.616;12.872;2023-02-12T06:23:28;120.30;;;55.37;;
7683;SDS011;3884;48.616;12.872;2023-02-12T06:25:56;114.80;;;55.93;;
7683;SDS011;3884;48.616;12.872;2023-02-12T06:28:23;112.60;;;54.77;;
7683;SDS011;3884;48.616;12.872;2023-02-12T06:30:50;117.53;;;54.20;;
7683;SDS011;3884;48.616;12.872;2023-02-12T06:33:17;107.17;;;54.30;;
7683;SDS011;3884;48.616;12.872;2023-02-12T06:35:46;114.67;;;53.77;;
7683;SDS011;3884;48.616;12.872;2023-02-12T06:38:13;110.67;;;55.43;;
7683;SDS011;3884;48.616;12.872;2023-02-12T06:40:40;103.30;;;51.93;;
7683;SDS011;3884;48.616;12.872;2023-02-12T06:43:07;106.87;;;52.90;;
7683;SDS011;3884;48.616;12.872;2023-02-12T06:45:34;109.70;;;52.17;;
7683;SDS011;3884;48.616;12.872;2023-02-12T06:48:01;110.10;;;52.67;;
7683;SDS011;3884;48.616;12.872;2023-02-12T06:50:28;117.00;;;54.23;;
7683;SDS011;3884;48.616;12.872;2023-02-12T06:52:58;102.93;;;52.23;;
7683;SDS011;3884;48.616;12.872;2023-02-12T06:55:25;112.87;;;53.73;;
7683;SDS011;3884;48.616;12.872;2023-02-12T06:57:52;113.93;;;55.87;;
7683;SDS011;3884;48.616;12.872;2023-02-12T07:00:20;115.73;;;56.27;;
7683;SDS011;3884;48.616;12.872;2023-02-12T07:02:51;113.73;;;55.20;;
7683;SDS011;3884;48.616;12.872;2023-02-12T07:05:19;115.70;;;55.53;;
7683;SDS011;3884;48.616;12.872;2023-02-12T07:07:46;111.13;;;55.17;;
7683;SDS011;3884;48.616;12.872;2023-02-12T07:10:15;116.57;;;55.30;;
7683;SDS011;3884;48.616;12.872;2023-02-12T07:12:43;119.73;;;55.93;;
7683;SDS011;3884;48.616;12.872;2023-02-12T07:15:10;106.73;;;52.90;;
7683;SDS011;3884;48.616;12.872;2023-02-12T07:17:37;108.27;;;53.50;;
7683;SDS011;3884;48.616;12.872;2023-02-12T07:20:04;114.63;;;55.47;;
7683;SDS011;3884;48.616;12.872;2023-02-12T07:22:34;98.40;;;50.93;;
7683;SDS011;3884;48.616;12.872;2023-02-12T07:25:01;103.97;;;51.63;;
7683;SDS011;3884;48.616;12.872;2023-02-12T07:27:29;103.73;;;50.07;;
7683;SDS011;3884;48.616;12.872;2023-02-12T07:29:57;100.10;;;49.70;;
7683;SDS011;3884;48.616;12.872;2023-02-12T07:32:24;110.57;;;51.97;;
7683;SDS011;3884;48.616;12.872;2023-02-12T07:34:51;99.43;;;51.00;;
7683;SDS011;3884;48.616;12.872;2023-02-12T07:37:18;107.03;;;51.40;;
7683;SDS011;3884;48.616;12.872;2023-02-12T07:39:46;104.03;;;55.43;;
7683;SDS011;3884;48.616;12.872;2023-02-12T07:42:14;109.27;;;59.50;;
7683;SDS011;3884;48.616;12.872;2023-02-12T07:44:48;108.77;;;53.73;;
7683;SDS011;3884;48.616;12.872;2023-02-12T07:47:15;101.60;;;49.40;;
7683;SDS011;3884;48.616;12.872;2023-02-12T07:49:42;96.13;;;49.23;;
7683;SDS011;3884;48.616;12.872;2023-02-12T07:52:09;98.30;;;48.73;;
7683;SDS011;3884;48.616;12.872;2023-02-12T07:54:36;98.10;;;50.00;;
7683;SDS011;3884;48.616;12.872;2023-02-12T07:57:03;98.77;;;50.50;;
7683;SDS011;3884;48.616;12.872;2023-02-12T07:59:30;105.20;;;50.93;;
7683;SDS011;3884;48.616;12.872;2023-02-12T08:01:59;97.30;;;48.57;;
7683;SDS011;3884;48.616;12.872;2023-02-12T08:04:26;100.33;;;49.20;;
7683;SDS011;3884;48.616;12.872;2023-02-12T08:06:53;98.93;;;50.10;;
7683;SDS011;3884;48.616;12.872;2023-02-12T08:09:22;97.83;;;48.93;;
7683;SDS011;3884;48.616;12.872;2023-02-12T08:11:50;97.53;;;49.73;;
7683;SDS011;3884;48.616;12.872;2023-02-12T08:14:17;103.00;;;50.73;;
7683;SDS011;3884;48.616;12.872;2023-02-12T08:16:46;97.97;;;50.77;;
7683;SDS011;3884;48.616;12.872;2023-02-12T08:19:16;91.97;;;49.97;;
7683;SDS011;3884;48.616;12.872;2023-02-12T08:21:43;103.03;;;49.97;;
7683;SDS011;3884;48.616;12.872;2023-02-12T08:24:11;98.27;;;50.40;;
7683;SDS011;3884;48.616;12.872;2023-02-12T08:26:38;95.33;;;50.17;;
7683;SDS011;3884;48.616;12.872;2023-02-12T08:29:06;97.07;;;49.63;;
7683;SDS011;3884;48.616;12.872;2023-02-12T08:31:36;104.87;;;52.30;;
7683;SDS011;3884;48.616;12.872;2023-02-12T08:34:04;100.63;;;54.23;;
7683;SDS011;3884;48.616;12.872;2023-02-12T08:36:35;109.60;;;56.53;;
7683;SDS011;3884;48.616;12.872;2023-02-12T08:39:04;105.57;;;51.53;;
7683;SDS011;3884;48.616;12.872;2023-02-12T08:41:32;109.00;;;53.10;;
7683;SDS011;3884;48.616;12.872;2023-02-12T08:44:00;104.60;;;51.07;;
7683;SDS011;3884;48.616;12.872;2023-02-12T08:46:29;110.00;;;52.90;;
7683;SDS011;3884;48.616;12.872;2023-02-12T08:48:58;119.17;;;52.67;;
7683;SDS011;3884;48.616;12.872;2023-02-12T08:51:27;128.13;;;68.33;;
7683;SDS011;3884;48.616;12.872;2023-02-12T08:53:58;134.63;;;69.43;;
7683;SDS011;3884;48.616;12.872;2023-02-12T08:56:26;131.10;;;59.93;;
7683;SDS011;3884;48.616;12.872;2023-02-12T08:58:55;118.03;;;54.90;;
7683;SDS011;3884;48.616;12.872;2023-02-12T09:01:23;157.27;;;84.70;;
7683;SDS011;3884;48.616;12.872;2023-02-12T09:03:52;118.13;;;59.97;;
7683;SDS011;3884;48.616;12.872;2023-02-12T09:06:20;120.17;;;55.07;;
7683;SDS011;3884;48.616;12.872;2023-02-12T09:08:50;126.00;;;55.47;;
7683;SDS011;3884;48.616;12.872;2023-02-12T09:11:19;157.93;;;71.00;;
7683;SDS011;3884;48.616;12.872;2023-02-12T09:13:54;154.60;;;69.37;;
7683;SDS011;3884;48.616;12.872;2023-02-12T09:16:22;145.73;;;59.37;;
7683;SDS011;3884;48.616;12.872;2023-02-12T09:18:50;149.67;;;61.90;;
7683;SDS011;3884;48.616;12.872;2023-02-12T09:21:17;131.13;;;58.10;;
7683;SDS011;3884;48.616;12.872;2023-02-12T09:23:44;139.27;;;62.80;;
7683;SDS011;3884;48.616;12.872;2023-02-12T09:26:12;147.60;;;63.70;;
7683;SDS011;3884;48.616;12.872;2023-02-12T09:28:42;141.23;;;63.33;;
7683;SDS011;3884;48.616;12.872;2023-02-12T09:31:10;141.13;;;61.10;;
7683;SDS011;3884;48.616;12.872;2023-02-12T09:33:38;139.60;;;60.53;;
7683;SDS011;3884;48.616;12.872;2023-02-12T09:36:07;141.27;;;62.87;;
7683;SDS011;3884;48.616;12.872;2023-02-12T09:38:35;141.80;;;63.27;;
7683;SDS011;3884;48.616;12.872;2023-02-12T09:44:05;117.13;;;57.43;;
7683;SDS011;3884;48.616;12.872;2023-02-12T09:46:38;142.97;;;59.03;;
7683;SDS011;3884;48.616;12.872;2023-02-12T09:49:14;117.93;;;58.30;;
7683;SDS011;3884;48.616;12.872;2023-02-12T09:51:49;135.57;;;62.37;;
7683;SDS011;3884;48.616;12.872;2023-02-12T09:54:19;133.87;;;58.47;;
7683;SDS011;3884;48.616;12.872;2023-02-12T09:56:50;125.50;;;59.47;;
7683;SDS011;3884;48.616;12.872;2023-02-12T09:59:24;125.40;;;58.53;;
7683;SDS011;3884;48.616;12.872;2023-02-12T10:01:57;129.20;;;59.13;;
7683;SDS011;3884;48.616;12.872;2023-02-12T10:04:24;131.37;;;57.73;;
7683;SDS011;3884;48.616;12.872;2023-02-12T10:06:55;132.13;;;56.17;;
7683;SDS011;3884;48.616;12.872;2023-02-12T10:09:32;135.27;;;56.37;;
7683;SDS011;3884;48.616;12.872;2023-02-12T10:12:12;144.53;;;58.53;;
7683;SDS011;3884;48.616;12.872;2023-02-12T10:14:55;144.17;;;56.00;;
7683;SDS011;3884;48.616;12.872;2023-02-12T10:17:31;132.40;;;54.20;;
7683;SDS011;3884;48.616;12.872;2023-02-12T10:23:23;118.17;;;51.93;;
7683;SDS011;3884;48.616;12.872;2023-02-12T10:25:56;117.83;;;51.07;;
7683;SDS011;3884;48.616;12.872;2023-02-12T10:28:25;109.37;;;50.37;;
7683;SDS011;3884;48.616;12.872;2023-02-12T10:30:58;113.37;;;49.37;;
7683;SDS011;3884;48.616;12.872;2023-02-12T10:33:28;109.07;;;46.23;;
7683;SDS011;3884;48.616;12.872;2023-02-12T10:36:01;105.60;;;44.87;;
7683;SDS011;3884;48.616;12.872;2023-02-12T10:38:33;96.10;;;42.73;;
7683;SDS011;3884;48.616;12.872;2023-02-12T10:41:05;98.40;;;44.70;;
7683;SDS011;3884;48.616;12.872;2023-02-12T10:43:32;103.27;;;45.27;;
7683;SDS011;3884;48.616;12.872;2023-02-12T10:46:00;96.77;;;44.00;;
7683;SDS011;3884;48.616;12.872;2023-02-12T10:48:29;99.93;;;46.53;;
7683;SDS011;3884;48.616;12.872;2023-02-12T10:51:07;94.53;;;42.10;;
7683;SDS011;3884;48.616;12.872;2023-02-12T10:53:45;86.23;;;42.47;;
7683;SDS011;3884;48.616;12.872;2023-02-12T10:56:17;95.27;;;43.67;;
7683;SDS011;3884;48.616;12.872;2023-02-12T10:58:53;85.00;;;40.13;;
7683;SDS011;3884;48.616;12.872;2023-02-12T11:01:25;85.67;;;41.10;;
7683;SDS011;3884;48.616;12.872;2023-02-12T11:03:54;80.43;;;38.23;;
7683;SDS011;3884;48.616;12.872;2023-02-12T11:06:22;76.00;;;37.90;;
7683;SDS011;3884;48.616;12.872;2023-02-12T11:08:52;101.87;;;48.80;;
7683;SDS011;3884;48.616;12.872;2023-02-12T11:11:19;65.17;;;34.20;;
7683;SDS011;3884;48.616;12.872;2023-02-12T11:13:53;84.37;;;47.23;;
7683;SDS011;3884;48.616;12.872;2023-02-12T11:16:27;68.90;;;36.70;;
7683;SDS011;3884;48.616;12.872;2023-02-12T11:18:57;64.20;;;31.17;;
7683;SDS011;3884;48.616;12.872;2023-02-12T11:21:26;58.00;;;31.07;;
7683;SDS011;3884;48.616;12.872;2023-02-12T11:23:53;58.30;;;30.23;;
7683;SDS011;3884;48.616;12.872;2023-02-12T11:26:22;61.17;;;29.90;;
7683;SDS011;3884;48.616;12.872;2023-02-12T11:28:52;60.80;;;31.87;;
7683;SDS011;3884;48.616;12.872;2023-02-12T11:31:21;61.77;;;31.40;;
7683;SDS011;3884;48.616;12.872;2023-02-12T11:36:44;51.83;;;28.17;;
7683;SDS011;3884;48.616;12.872;2023-02-12T11:39:16;54.93;;;29.07;;
7683;SDS011;3884;48.616;12.872;2023-02-12T11:41:48;55.27;;;29.00;;
7683;SDS011;3884;48.616;12.872;2023-02-12T11:44:18;53.20;;;29.07;;
7683;SDS011;3884;48.616;12.872;2023-02-12T11:46:48;53.03;;;28.77;;
7683;SDS011;3884;48.616;12.872;2023-02-12T11:49:18;56.20;;;29.77;;
7683;SDS011;3884;48.616;12.872;2023-02-12T11:51:49;54.63;;;28.80;;
7683;SDS011;3884;48.616;12.872;2023-02-12T11:54:17;54.80;;;29.67;;
7683;SDS011;3884;48.616;12.872;2023-02-12T11:56:47;53.47;;;28.23;;
7683;SDS011;3884;48.616;12.872;2023-02-12T11:59:20;51.50;;;28.03;;
7683;SDS011;3884;48.616;12.872;2023-02-12T12:01:57;50.27;;;26.73;;
7683;SDS011;3884;48.616;12.872;2023-02-12T12:04:27;50.93;;;27.57;;
7683;SDS011;3884;48.616;12.872;2023-02-12T12:07:01;50.40;;;25.73;;
7683;SDS011;3884;48.616;12.872;2023-02-12T12:09:36;45.13;;;26.13;;
7683;SDS011;3884;48.616;12.872;2023-02-12T12:12:08;47.70;;;26.10;;
7683;SDS011;3884;48.616;12.872;2023-02-12T12:14:41;50.17;;;29.10;;
7683;SDS011;3884;48.616;12.872;2023-02-12T12:17:36;56.73;;;31.17;;
7683;SDS011;3884;48.616;12.872;2023-02-12T12:20:26;50.03;;;29.67;;
7683;SDS011;3884;48.616;12.872;2023-02-12T12:22:58;48.00;;;27.37;;
7683;SDS011;3884;48.616;12.872;2023-02-12T12:25:29;48.43;;;28.40;;
7683;SDS011;3884;48.616;12.872;2023-02-12T12:28:03;46.47;;;26.80;;
7683;SDS011;3884;48.616;12.872;2023-02-12T12:30:44;46.07;;;26.73;;
7683;SDS011;3884;48.616;12.872;2023-02-12T12:33:19;47.07;;;25.67;;
7683;SDS011;3884;48.616;12.872;2023-02-12T12:35:53;45.70;;;25.40;;
7683;SDS011;3884;48.616;12.872;2023-02-12T12:38:39;45.07;;;25.40;;
7683;SDS011;3884;48.616;12.872;2023-02-12T12:41:14;44.13;;;25.07;;
7683;SDS011;3884;48.616;12.872;2023-02-12T12:43:54;47.90;;;25.97;;
7683;SDS011;3884;48.616;12.872;2023-02-12T12:46:33;48.33;;;26.60;;
7683;SDS011;3884;48.616;12.872;2023-02-12T12:49:25;45.20;;;26.63;;
7683;SDS011;3884;48.616;12.872;2023-02-12T12:52:03;49.03;;;28.87;;
7683;SDS011;3884;48.616;12.872;2023-02-12T12:54:50;47.10;;;26.53;;
7683;SDS011;3884;48.616;12.872;2023-02-12T12:57:32;40.23;;;23.43;;
7683;SDS011;3884;48.616;12.872;2023-02-12T13:00:18;39.60;;;24.27;;
7683;SDS011;3884;48.616;12.872;2023-02-12T13:03:19;39.83;;;23.73;;
7683;SDS011;3884;48.616;12.872;2023-02-12T13:06:26;44.63;;;25.30;;
7683;SDS011;3884;48.616;12.872;2023-02-12T13:09:07;43.57;;;24.70;;
7683;SDS011;3884;48.616;12.872;2023-02-12T13:11:55;41.97;;;23.50;;
7683;SDS011;3884;48.616;12.872;2023-02-12T13:14:41;38.90;;;23.43;;
7683;SDS011;3884;48.616;12.872;2023-02-12T13:17:13;41.87;;;24.10;;
7683;SDS011;3884;48.616;12.872;2023-02-12T13:19:51;37.17;;;22.40;;
7683;SDS011;3884;48.616;12.872;2023-02-12T13:22:26;39.00;;;23.10;;
7683;SDS011;3884;48.616;12.872;2023-02-12T13:25:00;43.70;;;24.20;;
7683;SDS011;3884;48.616;12.872;2023-02-12T13:27:34;43.97;;;24.20;;
7683;SDS011;3884;48.616;12.872;2023-02-12T13:30:14;40.67;;;24.30;;
7683;SDS011;3884;48.616;12.872;2023-02-12T13:32:46;38.03;;;23.00;;
7683;SDS011;3884;48.616;12.872;2023-02-12T13:35:18;45.40;;;24.83;;
7683;SDS011;3884;48.616;12.872;2023-02-12T13:37:47;42.43;;;24.93;;
7683;SDS011;3884;48.616;12.872;2023-02-12T13:40:18;40.60;;;22.67;;
7683;SDS011;3884;48.616;12.872;2023-02-12T13:42:49;43.57;;;22.63;;
7683;SDS011;3884;48.616;12.872;2023-02-12T13:45:23;38.37;;;23.17;;
7683;SDS011;3884;48.616;12.872;2023-02-12T13:48:04;36.80;;;22.17;;
7683;SDS011;3884;48.616;12.872;2023-02-12T13:50:49;37.80;;;21.80;;
7683;SDS011;3884;48.616;12.872;2023-02-12T13:53:24;40.97;;;23.17;;
7683;SDS011;3884;48.616;12.872;2023-02-12T13:56:00;36.33;;;22.07;;
7683;SDS011;3884;48.616;12.872;2023-02-12T13:58:39;35.20;;;21.87;;
7683;SDS011;3884;48.616;12.872;2023-02-12T14:04:14;37.93;;;20.70;;
7683;SDS011;3884;48.616;12.872;2023-02-12T14:06:54;36.40;;;22.37;;
7683;SDS011;3884;48.616;12.872;2023-02-12T14:09:26;35.27;;;21.67;;
7683;SDS011;3884;48.616;12.872;2023-02-12T14:11:56;37.07;;;22.80;;
7683;SDS011;3884;48.616;12.872;2023-02-12T14:14:27;36.17;;;21.57;;
7683;SDS011;3884;48.616;12.872;2023-02-12T14:17:12;37.13;;;21.73;;
7683;SDS011;3884;48.616;12.872;2023-02-12T14:20:22;36.57;;;20.90;;
7683;SDS011;3884;48.616;12.872;2023-02-12T14:22:59;36.20;;;21.30;;
7683;SDS011;3884;48.616;12.872;2023-02-12T14:25:30;36.63;;;20.50;;
7683;SDS011;3884;48.616;12.872;2023-02-12T14:28:05;35.33;;;19.10;;
7683;SDS011;3884;48.616;12.872;2023-02-12T14:30:40;36.33;;;20.63;;
7683;SDS011;3884;48.616;12.872;2023-02-12T14:33:25;35.07;;;20.57;;
7683;SDS011;3884;48.616;12.872;2023-02-12T14:41:29;33.40;;;20.17;;
7683;SDS011;3884;48.616;12.872;2023-02-12T14:47:04;30.87;;;19.33;;
7683;SDS011;3884;48.616;12.872;2023-02-12T14:49:41;32.43;;;19.53;;
7683;SDS011;3884;48.616;12.872;2023-02-12T14:52:13;37.13;;;21.33;;
7683;SDS011;3884;48.616;12.872;2023-02-12T14:54:44;32.63;;;19.70;;
7683;SDS011;3884;48.616;12.872;2023-02-12T14:57:18;33.83;;;20.33;;
7683;SDS011;3884;48.616;12.872;2023-02-12T14:59:50;34.07;;;21.10;;
7683;SDS011;3884;48.616;12.872;2023-02-12T15:02:22;32.67;;;20.43;;
7683;SDS011;3884;48.616;12.872;2023-02-12T15:04:53;29.47;;;18.97;;
7683;SDS011;3884;48.616;12.872;2023-02-12T15:07:27;38.27;;;21.53;;
7683;SDS011;3884;48.616;12.872;2023-02-12T15:09:59;34.83;;;21.43;;
7683;SDS011;3884;48.616;12.872;2023-02-12T15:12:34;37.73;;;20.83;;
7683;SDS011;3884;48.616;12.872;2023-02-12T15:15:05;35.10;;;21.27;;
7683;SDS011;3884;48.616;12.872;2023-02-12T15:17:39;39.23;;;23.80;;
7683;SDS011;3884;48.616;12.872;2023-02-12T15:20:16;35.20;;;20.77;;
7683;SDS011;3884;48.616;12.872;2023-02-12T15:22:46;36.77;;;22.03;;